Time,TemperatureF,DewpointF,PressureIn,WindDirection,WindDirectionDegrees,WindSpeedMPH,WindSpeedGustMPH,Humidity,HourlyPrecipIn,Conditions,Clouds,dailyrainin,SolarRadiationWatts/m^2,SoftwareType,DateUTC
2013-04-02 00:02:00,36.0,30.0,-100.00,WNW,303,7.0,13.0,81,0.00,,,0.00,0.000000,,2013-04-02 08:02:00,
2013-04-02 00:12:00,36.0,30.0,-100.00,WNW,303,7.0,13.0,81,0.00,,,0.00,0.000000,,2013-04-02 08:12:00,
2013-04-02 00:21:00,36.0,30.0,-100.00,WNW,303,7.0,13.0,81,0.00,,,0.00,0.000000,,2013-04-02 08:21:00,
2013-04-02 00:42:00,36.0,30.0,-100.00,WNW,296,9.0,14.0,80,0.00,,,0.00,0.000000,,2013-04-02 08:42:00,
2013-04-02 00:52:00,36.0,30.0,-100.00,WNW,296,9.0,14.0,80,0.00,,,0.00,0.000000,,2013-04-02 08:52:00,
2013-04-02 01:02:00,36.0,30.0,-100.00,WNW,296,9.0,14.0,80,0.00,,,0.00,0.000000,,2013-04-02 09:02:00,
2013-04-02 01:12:00,36.0,30.0,-100.00,WNW,296,9.0,14.0,80,0.00,,,0.00,0.000000,,2013-04-02 09:12:00,
2013-04-02 01:22:00,36.0,30.0,-100.00,WNW,296,9.0,14.0,80,0.00,,,0.00,0.000000,,2013-04-02 09:22:00,
2013-04-02 01:43:00,37.0,31.0,-100.00,WNW,301,8.0,12.0,76,0.00,,,0.00,0.000000,,2013-04-02 09:43:00,
2013-04-02 01:52:00,37.0,31.0,-100.00,WNW,301,8.0,12.0,76,0.00,,,0.00,0.000000,,2013-04-02 09:52:00,
2013-04-02 02:03:00,37.0,31.0,-100.00,WNW,301,8.0,12.0,76,0.00,,,0.00,0.000000,,2013-04-02 10:03:00,
2013-04-02 02:13:00,37.0,31.0,-100.00,WNW,301,8.0,12.0,76,0.00,,,0.00,0.000000,,2013-04-02 10:13:00,
2013-04-02 02:22:00,37.0,31.0,-100.00,WNW,301,8.0,12.0,76,0.00,,,0.00,0.000000,,2013-04-02 10:22:00,
2013-04-02 02:42:00,37.0,31.0,-100.00,WNW,301,7.0,11.0,76,0.00,,,0.00,0.000000,,2013-04-02 10:42:00,
2013-04-02 02:52:00,37.0,31.0,-100.00,WNW,301,7.0,11.0,76,0.00,,,0.00,0.000000,,2013-04-02 10:52:00,
2013-04-02 03:02:00,37.0,31.0,-100.00,WNW,301,7.0,11.0,76,0.00,,,0.00,0.000000,,2013-04-02 11:02:00,
2013-04-02 03:12:00,37.0,31.0,-100.00,WNW,301,7.0,11.0,76,0.00,,,0.00,0.000000,,2013-04-02 11:12:00,
2013-04-02 03:22:00,37.0,31.0,-100.00,WNW,301,7.0,11.0,76,0.00,,,0.00,0.000000,,2013-04-02 11:22:00,
2013-04-02 03:43:00,37.0,31.0,-100.00,WNW,299,7.0,12.0,76,0.00,,,0.00,0.000000,,2013-04-02 11:43:00,
2013-04-02 03:52:00,37.0,31.0,-100.00,WNW,299,7.0,12.0,76,0.00,,,0.00,0.000000,,2013-04-02 11:52:00,
2013-04-02 04:02:00,37.0,31.0,-100.00,WNW,299,7.0,12.0,76,0.00,,,0.00,0.000000,,2013-04-02 12:02:00,
2013-04-02 04:11:00,37.0,31.0,-100.00,WNW,299,7.0,12.0,76,0.00,,,0.00,0.000000,,2013-04-02 12:11:00,
2013-04-02 04:21:00,37.0,31.0,-100.00,WNW,299,7.0,12.0,76,0.00,,,0.00,0.000000,,2013-04-02 12:21:00,
2013-04-02 04:42:00,36.0,29.0,-100.00,WNW,298,9.0,13.0,77,0.00,,,-99.99,0.000000,,2013-04-02 12:42:00,
2013-04-02 04:52:00,36.0,29.0,-100.00,WNW,298,9.0,13.0,77,0.00,,,-99.99,0.000000,,2013-04-02 12:52:00,
2013-04-02 05:01:00,36.0,29.0,-100.00,WNW,298,9.0,13.0,77,0.00,,,-99.99,0.000000,,2013-04-02 13:01:00,
2013-04-02 05:12:00,36.0,29.0,-100.00,WNW,298,9.0,13.0,77,0.00,,,-99.99,0.000000,,2013-04-02 13:12:00,
2013-04-02 05:21:00,36.0,29.0,-100.00,WNW,298,9.0,13.0,77,0.00,,,-99.99,0.000000,,2013-04-02 13:21:00,
2013-04-02 05:42:00,36.0,29.0,-100.00,WNW,298,9.0,13.0,78,0.00,,,-99.99,0.000000,,2013-04-02 13:42:00,
2013-04-02 05:52:00,36.0,29.0,-100.00,WNW,298,9.0,13.0,78,0.00,,,-99.99,0.000000,,2013-04-02 13:52:00,
2013-04-02 06:02:00,36.0,29.0,-100.00,WNW,298,9.0,13.0,78,0.00,,,-99.99,0.000000,,2013-04-02 14:02:00,
2013-04-02 06:12:00,36.0,29.0,-100.00,WNW,298,9.0,13.0,78,0.00,,,-99.99,0.000000,,2013-04-02 14:12:00,
2013-04-02 06:21:00,36.0,29.0,-100.00,WNW,298,9.0,13.0,78,0.00,,,-99.99,0.000000,,2013-04-02 14:21:00,
2013-04-02 06:42:00,36.0,29.0,-100.00,WNW,302,7.0,12.0,78,0.00,,,0.00,0.000000,,2013-04-02 14:42:00,
2013-04-02 06:52:00,36.0,29.0,-100.00,WNW,302,7.0,12.0,78,0.00,,,0.00,0.000000,,2013-04-02 14:52:00,
2013-04-02 07:02:00,36.0,29.0,-100.00,WNW,302,7.0,12.0,78,0.00,,,0.00,0.000000,,2013-04-02 15:02:00,
2013-04-02 07:11:00,36.0,29.0,-100.00,WNW,302,7.0,12.0,78,0.00,,,0.00,0.000000,,2013-04-02 15:11:00,
2013-04-02 07:21:00,36.0,29.0,-100.00,WNW,302,7.0,12.0,78,0.00,,,0.00,0.000000,,2013-04-02 15:21:00,
2013-04-02 07:43:00,36.0,30.0,-100.00,WNW,302,6.0,12.0,80,0.00,,,-99.99,4.000000,,2013-04-02 15:43:00,
2013-04-02 07:57:00,36.0,30.0,-100.00,WNW,302,6.0,12.0,80,0.00,,,-99.99,4.000000,,2013-04-02 15:57:00,
2013-04-02 08:03:00,36.0,30.0,-100.00,WNW,302,6.0,12.0,80,0.00,,,-99.99,4.000000,,2013-04-02 16:03:00,
2013-04-02 08:13:00,36.0,30.0,-100.00,WNW,302,6.0,12.0,80,0.00,,,-99.99,4.000000,,2013-04-02 16:13:00,
2013-04-02 08:23:00,36.0,30.0,-100.00,WNW,302,6.0,12.0,80,0.00,,,-99.99,4.000000,,2013-04-02 16:23:00,
2013-04-02 08:44:00,36.0,30.0,-100.00,WNW,299,6.0,12.0,79,0.00,,,-99.99,48.000000,,2013-04-02 16:44:00,
2013-04-02 08:53:00,36.0,30.0,-100.00,WNW,299,6.0,12.0,79,0.00,,,-99.99,48.000000,,2013-04-02 16:53:00,
2013-04-02 09:04:00,36.0,30.0,-100.00,WNW,299,6.0,12.0,79,0.00,,,-99.99,48.000000,,2013-04-02 17:04:00,
2013-04-02 09:12:00,36.0,30.0,-100.00,WNW,299,6.0,12.0,79,0.00,,,-99.99,48.000000,,2013-04-02 17:12:00,
2013-04-02 09:22:00,36.0,30.0,-100.00,WNW,299,6.0,12.0,79,0.00,,,-99.99,48.000000,,2013-04-02 17:22:00,
2013-04-02 09:43:00,36.0,29.0,-100.00,WNW,301,6.0,10.0,78,0.00,,,-99.99,108.000000,,2013-04-02 17:43:00,
2013-04-02 09:55:00,36.0,29.0,-100.00,WNW,301,6.0,10.0,78,0.00,,,-99.99,108.000000,,2013-04-02 17:55:00,
2013-04-02 10:03:00,36.0,29.0,-100.00,WNW,301,6.0,10.0,78,0.00,,,-99.99,108.000000,,2013-04-02 18:03:00,
2013-04-02 10:12:00,36.0,29.0,-100.00,WNW,301,6.0,10.0,78,0.00,,,-99.99,108.000000,,2013-04-02 18:12:00,
2013-04-02 10:22:00,36.0,29.0,-100.00,WNW,301,6.0,10.0,78,0.00,,,-99.99,108.000000,,2013-04-02 18:22:00,
2013-04-02 10:43:00,37.0,31.0,-100.00,WNW,300,6.0,10.0,76,0.00,,,-99.99,148.000000,,2013-04-02 18:43:00,
2013-04-02 10:55:00,37.0,31.0,-100.00,WNW,300,6.0,10.0,76,0.00,,,-99.99,148.000000,,2013-04-02 18:55:00,
2013-04-02 11:02:00,37.0,31.0,-100.00,WNW,300,6.0,10.0,76,0.00,,,-99.99,148.000000,,2013-04-02 19:02:00,
2013-04-02 11:12:00,37.0,31.0,-100.00,WNW,300,6.0,10.0,76,0.00,,,-99.99,148.000000,,2013-04-02 19:12:00,
2013-04-02 11:21:00,37.0,31.0,-100.00,WNW,300,6.0,10.0,76,0.00,,,-99.99,148.000000,,2013-04-02 19:21:00,
2013-04-02 11:46:00,37.0,29.0,-100.00,NW,312,4.0,10.0,71,0.00,,,-99.99,214.000000,,2013-04-02 19:46:00,
2013-04-02 11:55:00,37.0,29.0,-100.00,NW,312,4.0,10.0,71,0.00,,,-99.99,214.000000,,2013-04-02 19:55:00,
2013-04-02 12:03:00,37.0,29.0,-100.00,NW,312,4.0,10.0,71,0.00,,,-99.99,214.000000,,2013-04-02 20:03:00,
2013-04-02 12:12:00,37.0,29.0,-100.00,NW,312,4.0,10.0,71,0.00,,,-99.99,214.000000,,2013-04-02 20:12:00,
2013-04-02 12:21:00,37.0,29.0,-100.00,NW,312,4.0,10.0,71,0.00,,,-99.99,214.000000,,2013-04-02 20:21:00,
2013-04-02 12:54:00,39.0,30.0,-100.00,WNW,302,5.0,12.0,69,0.00,,,-99.99,320.000000,,2013-04-02 20:54:00,
2013-04-02 13:03:00,39.0,30.0,-100.00,WNW,302,5.0,12.0,69,0.00,,,-99.99,320.000000,,2013-04-02 21:03:00,
2013-04-02 13:12:00,39.0,30.0,-100.00,WNW,302,5.0,12.0,69,0.00,,,-99.99,320.000000,,2013-04-02 21:12:00,
2013-04-02 13:22:00,39.0,30.0,-100.00,WNW,302,5.0,12.0,69,0.00,,,-99.99,320.000000,,2013-04-02 21:22:00,
2013-04-02 13:44:00,41.0,28.0,-100.00,NW,309,3.0,6.0,59,0.00,,,-99.99,406.000000,,2013-04-02 21:44:00,
2013-04-02 13:55:00,41.0,28.0,-100.00,NW,309,3.0,6.0,59,0.00,,,-99.99,406.000000,,2013-04-02 21:55:00,
2013-04-02 14:03:00,41.0,28.0,-100.00,NW,309,3.0,6.0,59,0.00,,,-99.99,406.000000,,2013-04-02 22:03:00,
2013-04-02 14:13:00,41.0,28.0,-100.00,NW,309,3.0,6.0,59,0.00,,,-99.99,406.000000,,2013-04-02 22:13:00,
2013-04-02 14:22:00,41.0,28.0,-100.00,NW,309,3.0,6.0,59,0.00,,,-99.99,406.000000,,2013-04-02 22:22:00,
2013-04-02 14:44:00,43.0,29.0,-100.00,NW,314,4.0,7.0,58,0.00,,,-99.99,322.000000,,2013-04-02 22:44:00,
2013-04-02 14:53:00,43.0,29.0,-100.00,NW,314,4.0,7.0,58,0.00,,,-99.99,322.000000,,2013-04-02 22:53:00,
2013-04-02 15:02:00,43.0,29.0,-100.00,NW,314,4.0,7.0,58,0.00,,,-99.99,322.000000,,2013-04-02 23:02:00,
2013-04-02 15:12:00,43.0,29.0,-100.00,NW,314,4.0,7.0,58,0.00,,,-99.99,322.000000,,2013-04-02 23:12:00,
2013-04-02 15:22:00,43.0,29.0,-100.00,NW,314,4.0,7.0,58,0.00,,,-99.99,322.000000,,2013-04-02 23:22:00,
2013-04-02 15:43:00,43.0,27.0,-100.00,NW,306,4.0,7.0,53,0.00,,,-99.99,257.000000,,2013-04-02 23:43:00,
2013-04-02 15:54:00,43.0,27.0,-100.00,NW,306,4.0,7.0,53,0.00,,,-99.99,257.000000,,2013-04-02 23:54:00,
2013-04-02 16:03:00,43.0,27.0,-100.00,NW,306,4.0,7.0,53,0.00,,,-99.99,257.000000,,2013-04-03 00:03:00,
2013-04-02 16:12:00,43.0,27.0,-100.00,NW,306,4.0,7.0,53,0.00,,,-99.99,257.000000,,2013-04-03 00:12:00,
2013-04-02 16:22:00,43.0,27.0,-100.00,NW,306,4.0,7.0,53,0.00,,,-99.99,257.000000,,2013-04-03 00:22:00,
2013-04-02 16:47:00,43.0,26.0,-100.00,NW,313,3.0,8.0,51,0.00,,,-99.99,306.000000,,2013-04-03 00:47:00,
2013-04-02 16:55:00,43.0,26.0,-100.00,NW,313,3.0,8.0,51,0.00,,,-99.99,306.000000,,2013-04-03 00:55:00,
2013-04-02 17:03:00,43.0,26.0,-100.00,NW,313,3.0,8.0,51,0.00,,,-99.99,306.000000,,2013-04-03 01:03:00,
2013-04-02 17:12:00,43.0,26.0,-100.00,NW,313,3.0,8.0,51,0.00,,,-99.99,306.000000,,2013-04-03 01:12:00,
2013-04-02 17:21:00,43.0,26.0,-100.00,NW,313,3.0,8.0,51,0.00,,,-99.99,306.000000,,2013-04-03 01:21:00,
2013-04-02 17:42:00,43.0,27.0,-100.00,NW,314,3.0,6.0,53,0.00,,,-99.99,329.000000,,2013-04-03 01:42:00,
2013-04-02 17:53:00,43.0,27.0,-100.00,NW,314,3.0,6.0,53,0.00,,,-99.99,329.000000,,2013-04-03 01:53:00,
2013-04-02 18:03:00,43.0,27.0,-100.00,NW,314,3.0,6.0,53,0.00,,,-99.99,329.000000,,2013-04-03 02:03:00,
2013-04-02 18:12:00,43.0,27.0,-100.00,NW,314,3.0,6.0,53,0.00,,,-99.99,329.000000,,2013-04-03 02:12:00,
2013-04-02 18:21:00,43.0,27.0,-100.00,NW,314,3.0,6.0,53,0.00,,,-99.99,329.000000,,2013-04-03 02:21:00,
2013-04-02 18:44:00,43.0,30.0,-100.00,NNW,329,3.0,6.0,61,0.00,,,-99.99,241.000000,,2013-04-03 02:44:00,
2013-04-02 18:53:00,43.0,30.0,-100.00,NNW,329,3.0,6.0,61,0.00,,,-99.99,241.000000,,2013-04-03 02:53:00,
2013-04-02 19:03:00,43.0,30.0,-100.00,NNW,329,3.0,6.0,61,0.00,,,-99.99,241.000000,,2013-04-03 03:03:00,
2013-04-02 19:13:00,43.0,30.0,-100.00,NNW,329,3.0,6.0,61,0.00,,,-99.99,241.000000,,2013-04-03 03:13:00,
2013-04-02 19:22:00,43.0,30.0,-100.00,NNW,329,3.0,6.0,61,0.00,,,-99.99,241.000000,,2013-04-03 03:22:00,
2013-04-02 19:44:00,39.0,32.0,-100.00,NNW,342,2.0,6.0,75,0.00,,,0.00,52.000000,,2013-04-03 03:44:00,
2013-04-02 19:54:00,39.0,32.0,-100.00,NNW,342,2.0,6.0,75,0.00,,,0.00,52.000000,,2013-04-03 03:54:00,
2013-04-02 20:03:00,39.0,32.0,-100.00,NNW,342,2.0,6.0,75,0.00,,,0.00,52.000000,,2013-04-03 04:03:00,
2013-04-02 20:12:00,39.0,32.0,-100.00,NNW,342,2.0,6.0,75,0.00,,,0.00,52.000000,,2013-04-03 04:12:00,
2013-04-02 20:23:00,39.0,32.0,-100.00,NNW,342,2.0,6.0,75,0.00,,,0.00,52.000000,,2013-04-03 04:23:00,
2013-04-02 20:43:00,37.0,31.0,-100.00,NNW,348,1.0,3.0,78,0.00,,,0.00,11.000000,,2013-04-03 04:43:00,
2013-04-02 20:53:00,37.0,31.0,-100.00,NNW,348,1.0,3.0,78,0.00,,,0.00,11.000000,,2013-04-03 04:53:00,
2013-04-02 21:02:00,37.0,31.0,-100.00,NNW,348,1.0,3.0,78,0.00,,,0.00,11.000000,,2013-04-03 05:02:00,
2013-04-02 21:12:00,37.0,31.0,-100.00,NNW,348,1.0,3.0,78,0.00,,,0.00,11.000000,,2013-04-03 05:12:00,
2013-04-02 21:22:00,37.0,31.0,-100.00,NNW,348,1.0,3.0,78,0.00,,,0.00,11.000000,,2013-04-03 05:22:00,
2013-04-02 21:42:00,34.0,32.0,-100.00,SE,130,0.0,2.0,92,0.00,,,-99.99,0.000000,,2013-04-03 05:42:00,
2013-04-02 21:52:00,34.0,32.0,-100.00,SE,130,0.0,2.0,92,0.00,,,-99.99,0.000000,,2013-04-03 05:52:00,
2013-04-02 22:02:00,34.0,32.0,-100.00,SE,130,0.0,2.0,92,0.00,,,-99.99,0.000000,,2013-04-03 06:02:00,
2013-04-02 22:12:00,34.0,32.0,-100.00,SE,130,0.0,2.0,92,0.00,,,-99.99,0.000000,,2013-04-03 06:12:00,
2013-04-02 22:21:00,34.0,32.0,-100.00,SE,130,0.0,2.0,92,0.00,,,-99.99,0.000000,,2013-04-03 06:21:00,
2013-04-02 22:42:00,32.0,31.0,-100.00,SE,142,0.0,2.0,97,0.00,,,0.00,0.000000,,2013-04-03 06:42:00,
2013-04-02 22:52:00,32.0,31.0,-100.00,SE,142,0.0,2.0,97,0.00,,,0.00,0.000000,,2013-04-03 06:52:00,
2013-04-02 23:02:00,32.0,31.0,-100.00,SE,142,0.0,2.0,97,0.00,,,0.00,0.000000,,2013-04-03 07:02:00,
2013-04-02 23:12:00,32.0,31.0,-100.00,SE,142,0.0,2.0,97,0.00,,,0.00,0.000000,,2013-04-03 07:12:00,
2013-04-02 23:22:00,32.0,31.0,-100.00,SE,142,0.0,2.0,97,0.00,,,0.00,0.000000,,2013-04-03 07:22:00,
2013-04-02 23:42:00,32.0,32.0,-100.00,SE,144,0.0,1.0,98,0.00,,,0.00,0.000000,,2013-04-03 07:42:00,
2013-04-02 23:53:00,32.0,32.0,-100.00,SE,144,0.0,1.0,98,0.00,,,0.00,0.000000,,2013-04-03 07:53:00,